createdAt,value
2022-11-19T00:01:21.352Z,99499.63
2022-11-19T00:03:52.356Z,99496.53
2022-11-19T00:06:22.009Z,99501.00
2022-11-19T00:08:49.104Z,99497.31
2022-11-19T00:11:37.206Z,99492.19
2022-11-19T00:14:04.869Z,99496.47
2022-11-19T00:16:31.455Z,99496.78
2022-11-19T00:18:58.837Z,99502.63
2022-11-19T00:21:25.248Z,99492.00
2022-11-19T00:23:56.027Z,99497.38
2022-11-19T00:26:22.960Z,99496.41
2022-11-19T00:28:49.838Z,99493.81
2022-11-19T00:31:17.037Z,99493.28
2022-11-19T00:33:45.196Z,99490.84
2022-11-19T00:36:14.667Z,99483.06
2022-11-19T00:38:42.290Z,99483.97
2022-11-19T00:41:09.183Z,99491.81
2022-11-19T00:43:49.057Z,99482.28
2022-11-19T00:46:21.455Z,99488.31
2022-11-19T00:48:49.846Z,99482.28
2022-11-19T00:51:18.134Z,99484.81
2022-11-19T00:53:45.183Z,99491.69
2022-11-19T00:56:14.643Z,99498.66
2022-11-19T00:58:42.413Z,99494.47
2022-11-19T01:01:10.267Z,99493.78
2022-11-19T01:03:38.310Z,99492.03
2022-11-19T01:06:05.502Z,99501.19
2022-11-19T01:08:32.247Z,99497.69
2022-11-19T01:11:16.785Z,99502.22
2022-11-19T01:13:43.651Z,99500.53
2022-11-19T01:16:15.871Z,99507.75
2022-11-19T01:18:43.950Z,99509.38
2022-11-19T01:21:12.177Z,99504.81
2022-11-19T01:23:40.888Z,99507.94
2022-11-19T01:26:08.323Z,99502.94
2022-11-19T01:28:35.153Z,99501.59
2022-11-19T01:31:07.739Z,99507.63
2022-11-19T01:33:36.043Z,99509.31
2022-11-19T01:36:05.706Z,99505.59
2022-11-19T01:38:32.668Z,99503.41
2022-11-19T01:40:59.923Z,99506.78
2022-11-19T01:43:45.914Z,99505.09
2022-11-19T01:46:15.212Z,99501.66
2022-11-19T01:48:51.952Z,99495.47
2022-11-19T01:51:24.983Z,99505.09
2022-11-19T01:53:53.917Z,99505.72
2022-11-19T01:56:22.237Z,99508.47
2022-11-19T01:59:15.202Z,99501.66
2022-11-19T02:02:01.657Z,99500.88
2022-11-19T02:04:51.577Z,99506.06
2022-11-19T02:07:42.520Z,99499.97
2022-11-19T02:10:48.521Z,99506.28
2022-11-19T02:13:41.815Z,99511.44
2022-11-19T02:16:21.552Z,99506.00
2022-11-19T02:18:56.342Z,99510.28
2022-11-19T02:21:46.603Z,99512.81
2022-11-19T02:24:46.493Z,99518.06
2022-11-19T02:27:26.057Z,99514.81
2022-11-19T02:30:07.649Z,99515.41
2022-11-19T02:32:50.606Z,99511.13
2022-11-19T02:36:00.409Z,99514.41
2022-11-19T02:38:50.455Z,99509.22
2022-11-19T02:41:38.041Z,99506.13
2022-11-19T02:44:38.939Z,99508.72
2022-11-19T02:47:11.704Z,99503.47
2022-11-19T02:49:43.238Z,99499.09
2022-11-19T02:52:09.762Z,99499.69
2022-11-19T02:54:36.185Z,99502.44
2022-11-19T02:57:03.816Z,99502.50
2022-11-19T02:59:59.460Z,99504.31
2022-11-19T03:02:54.902Z,99510.91
2022-11-19T03:05:27.913Z,99509.31
2022-11-19T03:07:55.467Z,99511.06
2022-11-19T03:10:25.758Z,99513.50
2022-11-19T03:13:28.129Z,99508.25
2022-11-19T03:16:15.473Z,99512.47
2022-11-19T03:18:55.103Z,99516.78
2022-11-19T03:21:46.111Z,99512.81
2022-11-19T03:24:15.228Z,99516.31
2022-11-19T03:26:48.558Z,99524.75
2022-11-19T03:29:15.975Z,99533.53
2022-11-19T03:31:49.754Z,99524.97
2022-11-19T03:34:19.896Z,99528.25
2022-11-19T03:36:49.278Z,99528.91
2022-11-19T03:39:18.467Z,99524.56
2022-11-19T03:41:50.711Z,99534.84
2022-11-19T03:44:37.480Z,99531.56
2022-11-19T03:47:13.307Z,99527.94
2022-11-19T03:49:43.968Z,99530.66
2022-11-19T03:52:15.174Z,99529.81
2022-11-19T03:54:42.834Z,99532.59
2022-11-19T03:57:13.168Z,99535.34
2022-11-19T03:59:39.898Z,99531.69
2022-11-19T04:02:09.030Z,99537.03
2022-11-19T04:04:37.235Z,99536.75
2022-11-19T04:07:26.701Z,99534.09
2022-11-19T04:09:53.179Z,99540.47
2022-11-19T04:12:22.348Z,99545.34
2022-11-19T04:14:52.368Z,99543.53
2022-11-19T04:17:20.238Z,99536.81
2022-11-19T04:19:47.564Z,99542.22
2022-11-19T04:22:14.008Z,99543.94
2022-11-19T04:24:40.995Z,99545.91
2022-11-19T04:27:07.706Z,99543.19
2022-11-19T04:29:34.862Z,99547.84
2022-11-19T04:32:01.401Z,99548.44
2022-11-19T04:34:27.815Z,99552.63
2022-11-19T04:36:54.473Z,99553.72
2022-11-19T04:39:21.229Z,99551.16
2022-11-19T04:41:47.934Z,99555.63
2022-11-19T04:44:14.653Z,99553.75
2022-11-19T04:46:41.058Z,99552.19
2022-11-19T04:49:07.899Z,99553.81
2022-11-19T04:51:34.632Z,99560.38
2022-11-19T04:54:01.485Z,99558.34
2022-11-19T04:56:28.157Z,99560.09
2022-11-19T04:58:55.216Z,99567.22
2022-11-19T05:01:22.323Z,99555.97
2022-11-19T05:03:48.870Z,99558.41
2022-11-19T05:06:15.667Z,99559.19
2022-11-19T05:08:42.210Z,99557.63
2022-11-19T05:11:09.191Z,99558.47
2022-11-19T05:13:35.761Z,99553.09
2022-11-19T05:16:02.920Z,99561.97
2022-11-19T05:18:29.850Z,99557.56
2022-11-19T05:20:56.315Z,99556.66
2022-11-19T05:23:23.157Z,99555.69
2022-11-19T05:25:49.858Z,99565.13
2022-11-19T05:28:16.379Z,99553.75
2022-11-19T05:30:43.160Z,99554.59
2022-11-19T05:33:09.964Z,99558.91
2022-11-19T05:35:36.677Z,99563.47
2022-11-19T05:38:03.294Z,99562.75
2022-11-19T05:40:30.233Z,99572.84
2022-11-19T05:42:57.218Z,99582.56
2022-11-19T05:45:23.642Z,99582.78
2022-11-19T05:47:55.007Z,99591.84
2022-11-19T05:50:21.800Z,99594.22
2022-11-19T05:52:49.728Z,99594.09
2022-11-19T05:55:17.048Z,99589.88
2022-11-19T05:57:43.578Z,99583.06
2022-11-19T06:00:11.622Z,99594.81
2022-11-19T06:02:40.856Z,99590.03
2022-11-19T06:05:08.132Z,99583.38
2022-11-19T06:07:34.654Z,99589.88
2022-11-19T06:10:01.900Z,99588.97
2022-11-19T06:12:28.541Z,99587.19
2022-11-19T06:14:56.043Z,99591.53
2022-11-19T06:17:23.282Z,99588.91
2022-11-19T06:19:49.753Z,99583.94
2022-11-19T06:22:16.450Z,99583.09
2022-11-19T06:24:43.009Z,99586.50
2022-11-19T06:27:09.750Z,99584.06
2022-11-19T06:29:37.036Z,99585.66
2022-11-19T06:32:03.926Z,99590.94
2022-11-19T06:34:30.409Z,99595.06
2022-11-19T06:36:58.809Z,99587.19
2022-11-19T06:39:25.435Z,99585.53
2022-11-19T06:41:51.953Z,99587.94
2022-11-19T06:44:18.694Z,99589.78
2022-11-19T06:46:45.172Z,99600.00
2022-11-19T06:49:16.809Z,99594.97
2022-11-19T06:51:46.539Z,99599.16
2022-11-19T06:54:12.975Z,99598.31
2022-11-19T06:56:39.470Z,99609.69
2022-11-19T06:59:06.352Z,99605.19
2022-11-19T07:01:32.809Z,99610.56
2022-11-19T07:03:59.966Z,99614.41
2022-11-19T07:06:26.519Z,99613.59
2022-11-19T07:08:52.973Z,99614.56
2022-11-19T07:11:25.831Z,99613.72
2022-11-19T07:13:59.988Z,99614.09
2022-11-19T07:16:33.114Z,99614.75
2022-11-19T07:19:02.584Z,99618.78
2022-11-19T07:21:30.376Z,99625.59
2022-11-19T07:23:58.744Z,99624.03
2022-11-19T07:26:25.813Z,99627.13
2022-11-19T07:28:53.617Z,99626.72
2022-11-19T07:31:20.434Z,99626.72
2022-11-19T07:33:46.877Z,99630.91
2022-11-19T07:36:18.070Z,99632.56
2022-11-19T07:38:45.623Z,99633.28
2022-11-19T07:41:30.906Z,99635.94
2022-11-19T07:43:57.591Z,99640.50
2022-11-19T07:46:24.161Z,99644.47
2022-11-19T07:48:55.093Z,99647.06
2022-11-19T07:51:22.527Z,99652.34
2022-11-19T07:53:49.559Z,99650.34
2022-11-19T07:56:16.990Z,99650.09
2022-11-19T07:58:43.878Z,99649.31
2022-11-19T08:01:12.647Z,99653.41
2022-11-19T08:03:42.446Z,99656.16
2022-11-19T08:06:09.726Z,99653.69
2022-11-19T08:08:36.468Z,99648.97
2022-11-19T08:11:08.220Z,99652.63
2022-11-19T08:13:36.302Z,99655.81
2022-11-19T08:16:05.202Z,99659.19
2022-11-19T08:18:32.333Z,99663.47
2022-11-19T08:21:11.089Z,99674.03
2022-11-19T08:23:39.213Z,99680.06
2022-11-19T08:26:07.241Z,99678.69
2022-11-19T08:28:34.672Z,99680.78
2022-11-19T08:31:09.031Z,99683.03
2022-11-19T08:33:36.493Z,99675.25
2022-11-19T08:36:03.755Z,99680.34
2022-11-19T08:38:33.399Z,99682.66
2022-11-19T08:41:23.281Z,99679.28
2022-11-19T08:43:49.704Z,99687.88
2022-11-19T08:46:16.713Z,99682.53
2022-11-19T08:48:43.147Z,99686.59
2022-11-19T08:51:15.053Z,99678.25
2022-11-19T08:53:42.329Z,99692.84
2022-11-19T08:56:10.904Z,99685.53
2022-11-19T08:58:40.450Z,99689.84
2022-11-19T09:01:11.880Z,99688.97
2022-11-19T09:03:39.354Z,99688.72
2022-11-19T09:06:06.595Z,99692.34
2022-11-19T09:08:33.690Z,99696.19
2022-11-19T09:11:06.445Z,99697.75
2022-11-19T09:13:33.081Z,99702.81
2022-11-19T09:16:00.029Z,99704.69
2022-11-19T09:18:26.506Z,99711.88
2022-11-19T09:20:55.292Z,99707.00
2022-11-19T09:23:22.893Z,99723.25
2022-11-19T09:25:58.077Z,99725.97
2022-11-19T09:28:25.183Z,99739.78
2022-11-19T09:31:00.063Z,99742.25
2022-11-19T09:33:27.470Z,99738.41
2022-11-19T09:35:54.533Z,99748.31
2022-11-19T09:38:21.572Z,99746.69
2022-11-19T09:40:51.379Z,99746.66
2022-11-19T09:43:37.528Z,99755.53
2022-11-19T09:46:11.331Z,99759.06
2022-11-19T09:48:39.586Z,99761.44
2022-11-19T09:51:14.220Z,99756.47
2022-11-19T09:53:44.033Z,99753.47
2022-11-19T09:56:18.041Z,99758.09
2022-11-19T09:58:45.466Z,99762.22
2022-11-19T10:01:18.186Z,99760.84
2022-11-19T10:03:48.807Z,99768.47
2022-11-19T10:06:15.217Z,99772.34
2022-11-19T10:09:11.920Z,99774.13
2022-11-19T10:11:55.905Z,99767.56
2022-11-19T10:14:41.181Z,99769.53
2022-11-19T10:17:30.045Z,99767.50
2022-11-19T10:20:21.080Z,99770.81
2022-11-19T10:22:57.817Z,99760.06
2022-11-19T10:25:37.082Z,99760.75
2022-11-19T10:28:18.829Z,99767.38
2022-11-19T10:30:56.394Z,99767.50
2022-11-19T10:33:32.284Z,99774.31
2022-11-19T10:36:10.500Z,99771.03
2022-11-19T10:38:50.960Z,99781.09
2022-11-19T10:41:23.702Z,99769.44
2022-11-19T10:44:39.940Z,99770.28
2022-11-19T10:47:19.517Z,99775.31
2022-11-19T10:49:52.738Z,99776.38
2022-11-19T10:52:28.543Z,99776.56
2022-11-19T10:55:03.189Z,99777.16
2022-11-19T10:57:32.455Z,99774.53
2022-11-19T11:00:00.699Z,99767.53
2022-11-19T11:02:49.693Z,99765.91
2022-11-19T11:05:18.637Z,99773.53
2022-11-19T11:07:50.643Z,99763.16
2022-11-19T11:10:28.495Z,99759.00
2022-11-19T11:13:17.403Z,99755.41
2022-11-19T11:15:47.418Z,99763.06
2022-11-19T11:18:15.239Z,99769.66
2022-11-19T11:20:48.693Z,99763.56
2022-11-19T11:23:18.480Z,99762.63
2022-11-19T11:26:06.390Z,99766.06
2022-11-19T11:28:33.862Z,99769.41
2022-11-19T11:31:01.642Z,99770.34
2022-11-19T11:33:30.315Z,99777.38
2022-11-19T11:36:00.693Z,99782.81
2022-11-19T11:38:28.516Z,99778.16
2022-11-19T11:44:03.985Z,99777.16
2022-11-19T11:46:47.963Z,99773.59
2022-11-19T11:49:26.742Z,99761.44
2022-11-19T11:52:07.393Z,99757.59
2022-11-19T11:54:34.584Z,99755.59
2022-11-19T11:57:28.308Z,99759.81
2022-11-19T11:59:55.621Z,99752.97
2022-11-19T12:02:31.286Z,99761.28
2022-11-19T12:05:04.019Z,99771.75
2022-11-19T12:07:47.363Z,99776.19
2022-11-19T12:10:47.457Z,99772.13
2022-11-19T12:13:26.353Z,99782.81
2022-11-19T12:15:58.943Z,99781.50
2022-11-19T12:18:53.699Z,99791.41
2022-11-19T12:21:23.333Z,99792.84
2022-11-19T12:24:18.271Z,99791.91
2022-11-19T12:26:55.780Z,99795.94
2022-11-19T12:29:43.869Z,99802.13
2022-11-19T12:32:16.449Z,99797.13
2022-11-19T12:35:04.605Z,99790.19
2022-11-19T12:38:02.075Z,99787.94
2022-11-19T12:41:00.386Z,99790.53
2022-11-19T12:43:53.106Z,99794.53
2022-11-19T12:46:44.907Z,99791.94
2022-11-19T12:49:26.566Z,99800.66
2022-11-19T12:52:03.011Z,99798.81
2022-11-19T12:55:08.399Z,99789.66
2022-11-19T12:57:47.794Z,99791.88
2022-11-19T13:00:18.979Z,99795.94
2022-11-19T13:02:59.186Z,99789.34
2022-11-19T13:05:49.929Z,99788.66
2022-11-19T13:08:33.974Z,99781.06
2022-11-19T13:11:22.856Z,99781.94
2022-11-19T13:13:59.981Z,99787.78
2022-11-19T13:16:30.026Z,99793.94
2022-11-19T13:19:07.969Z,99797.78
2022-11-19T13:21:48.138Z,99788.88
2022-11-19T13:24:46.629Z,99781.47
2022-11-19T13:27:23.323Z,99773.59
2022-11-19T13:30:00.232Z,99783.16
2022-11-19T13:32:41.925Z,99783.13
2022-11-19T13:35:23.739Z,99787.78
2022-11-19T13:38:16.710Z,99798.50
2022-11-19T13:40:52.436Z,99798.63
2022-11-19T13:43:40.262Z,99806.13
2022-11-19T13:46:14.573Z,99811.72
2022-11-19T13:48:54.061Z,99803.16
2022-11-19T13:51:40.508Z,99805.94
2022-11-19T13:54:22.920Z,99811.38
2022-11-19T13:56:52.221Z,99819.31
2022-11-19T13:59:44.894Z,99814.84
2022-11-19T14:02:49.196Z,99818.09
2022-11-19T14:05:40.576Z,99811.84
2022-11-19T14:08:35.711Z,99811.97
2022-11-19T14:11:30.312Z,99820.31
2022-11-19T14:14:57.352Z,99814.09
2022-11-19T14:18:01.397Z,99816.47
2022-11-19T14:20:49.721Z,99823.28
2022-11-19T14:24:03.650Z,99821.81
2022-11-19T14:26:42.587Z,99822.53
2022-11-19T14:29:52.118Z,99819.88
2022-11-19T14:32:27.772Z,99824.28
2022-11-19T14:35:01.449Z,99828.47
2022-11-19T14:37:32.849Z,99827.63
2022-11-19T14:40:14.297Z,99826.13
2022-11-19T14:43:18.579Z,99828.66
2022-11-19T14:46:04.752Z,99827.84
2022-11-19T14:48:34.743Z,99827.44
2022-11-19T14:51:15.665Z,99835.00
2022-11-19T14:53:50.032Z,99830.03
2022-11-19T14:56:20.954Z,99836.84
2022-11-19T14:58:57.030Z,99842.03
2022-11-19T15:01:24.406Z,99837.34
2022-11-19T15:03:57.947Z,99837.31
2022-11-19T15:06:25.785Z,99845.13
2022-11-19T15:08:57.575Z,99846.00
2022-11-19T15:11:24.011Z,99846.72
2022-11-19T15:14:29.765Z,99844.94
2022-11-19T15:17:00.847Z,99847.75
2022-11-19T15:19:42.416Z,99850.84
2022-11-19T15:22:26.505Z,99849.19
2022-11-19T15:25:21.981Z,99851.59
2022-11-19T15:28:11.802Z,99856.69
2022-11-19T15:31:01.752Z,99842.03
2022-11-19T15:33:28.122Z,99851.50
2022-11-19T15:36:29.251Z,99847.19
2022-11-19T15:39:18.248Z,99850.88
2022-11-19T15:42:00.843Z,99856.91
2022-11-19T15:44:37.095Z,99847.13
2022-11-19T15:47:12.270Z,99844.38
2022-11-19T15:49:39.962Z,99842.78
2022-11-19T15:52:32.964Z,99839.00
2022-11-19T15:55:19.049Z,99837.34
2022-11-19T15:57:50.215Z,99848.16
2022-11-19T16:00:22.918Z,99849.91
2022-11-19T16:02:52.238Z,99853.34
2022-11-19T16:05:20.231Z,99854.06
2022-11-19T16:07:48.703Z,99857.91
2022-11-19T16:10:40.048Z,99855.91
2022-11-19T16:13:43.453Z,99846.41
2022-11-19T16:16:42.538Z,99848.19
2022-11-19T16:19:09.030Z,99849.28
2022-11-19T16:21:38.866Z,99850.97
2022-11-19T16:24:30.440Z,99839.97
2022-11-19T16:26:59.244Z,99848.53
2022-11-19T16:29:26.911Z,99845.91
2022-11-19T16:31:59.488Z,99856.91
2022-11-19T16:34:30.098Z,99852.50
2022-11-19T16:36:57.280Z,99866.38
2022-11-19T16:39:27.257Z,99867.28
2022-11-19T16:42:18.429Z,99870.78
2022-11-19T16:44:50.867Z,99873.38
2022-11-19T16:47:30.980Z,99870.84
2022-11-19T16:50:01.985Z,99871.63
2022-11-19T16:52:34.395Z,99869.94
2022-11-19T16:55:03.383Z,99874.66
2022-11-19T16:57:31.340Z,99872.28
2022-11-19T17:00:28.665Z,99879.75
2022-11-19T17:02:55.330Z,99884.34
2022-11-19T17:05:24.601Z,99885.03
2022-11-19T17:08:26.482Z,99884.38
2022-11-19T17:11:38.595Z,99882.56
2022-11-19T17:14:34.573Z,99893.13
2022-11-19T17:17:02.026Z,99892.94
2022-11-19T17:19:36.249Z,99892.97
2022-11-19T17:22:23.339Z,99888.50
2022-11-19T17:24:50.595Z,99895.34
2022-11-19T17:27:38.110Z,99893.63
2022-11-19T17:30:22.925Z,99898.25
2022-11-19T17:32:54.638Z,99904.19
2022-11-19T17:35:41.083Z,99899.88
2022-11-19T17:38:13.507Z,99899.63
2022-11-19T17:40:45.451Z,99898.88
2022-11-19T17:43:32.699Z,99902.13
2022-11-19T17:45:59.822Z,99902.88
2022-11-19T17:48:27.565Z,99905.47
2022-11-19T17:50:54.933Z,99905.59
2022-11-19T17:53:23.254Z,99901.22
2022-11-19T17:55:53.452Z,99909.81
2022-11-19T17:58:20.143Z,99908.00
2022-11-19T18:00:47.268Z,99908.97
2022-11-19T18:03:15.237Z,99911.53
2022-11-19T18:05:47.082Z,99914.00
2022-11-19T18:08:15.767Z,99917.69
2022-11-19T18:10:45.457Z,99918.78
2022-11-19T18:13:14.497Z,99920.22
2022-11-19T18:15:41.599Z,99919.25
2022-11-19T18:18:08.348Z,99919.22
2022-11-19T18:20:35.393Z,99921.13
2022-11-19T18:23:02.405Z,99922.94
2022-11-19T18:25:29.064Z,99923.72
2022-11-19T18:27:55.986Z,99927.19
2022-11-19T18:30:23.013Z,99939.13
2022-11-19T18:32:49.529Z,99931.28
2022-11-19T18:35:19.717Z,99933.31
2022-11-19T18:37:47.188Z,99933.53
2022-11-19T18:40:15.402Z,99935.41
2022-11-19T18:43:03.704Z,99932.81
2022-11-19T18:45:31.858Z,99943.66
2022-11-19T18:47:58.632Z,99941.03
2022-11-19T18:50:29.528Z,99935.41
2022-11-19T18:52:56.659Z,99931.47
2022-11-19T18:55:23.479Z,99932.22
2022-11-19T18:57:49.982Z,99933.16
2022-11-19T19:00:18.170Z,99931.34
2022-11-19T19:02:45.003Z,99937.97
2022-11-19T19:05:11.826Z,99944.69
2022-11-19T19:07:38.582Z,99943.03
2022-11-19T19:10:05.713Z,99944.81
2022-11-19T19:12:32.244Z,99956.22
2022-11-19T19:15:02.200Z,99951.59
2022-11-19T19:17:30.297Z,99951.50
2022-11-19T19:19:56.791Z,99958.09
2022-11-19T19:22:23.362Z,99961.50
2022-11-19T19:24:55.209Z,99959.66
2022-11-19T19:27:24.582Z,99963.94
2022-11-19T19:29:51.223Z,99963.19
2022-11-19T19:32:17.745Z,99962.16
2022-11-19T19:34:44.614Z,99963.03
2022-11-19T19:37:11.465Z,99959.91
2022-11-19T19:39:38.054Z,99956.72
2022-11-19T19:42:04.854Z,99957.44
2022-11-19T19:44:31.673Z,99958.19
2022-11-19T19:46:59.237Z,99959.06
2022-11-19T19:49:27.002Z,99970.13
2022-11-19T19:51:53.405Z,99973.69
2022-11-19T19:54:19.814Z,99976.16
2022-11-19T19:56:47.214Z,99973.66
2022-11-19T19:59:14.816Z,99978.84
2022-11-19T20:01:44.594Z,99978.69
2022-11-19T20:04:11.790Z,99978.84
2022-11-19T20:06:43.875Z,99972.94
2022-11-19T20:09:10.578Z,99976.50
2022-11-19T20:11:38.680Z,99982.31
2022-11-19T20:14:05.529Z,99982.69
2022-11-19T20:16:33.199Z,99984.28
2022-11-19T20:19:01.191Z,99987.66
2022-11-19T20:21:31.785Z,99991.25
2022-11-19T20:23:58.367Z,99988.56
2022-11-19T20:26:27.950Z,99988.38
2022-11-19T20:29:00.006Z,99984.13
2022-11-19T20:31:27.637Z,99982.53
2022-11-19T20:33:57.720Z,99987.53
2022-11-19T20:36:25.951Z,99984.25
2022-11-19T20:38:52.936Z,99989.34
2022-11-19T20:41:39.866Z,99982.44
2022-11-19T20:44:23.335Z,99986.81
2022-11-19T20:46:59.616Z,99989.59
2022-11-19T20:49:28.388Z,99982.66
2022-11-19T20:51:55.435Z,99990.25
2022-11-19T20:54:23.103Z,99995.25
2022-11-19T20:56:50.662Z,99997.06
2022-11-19T20:59:18.399Z,99997.13
2022-11-19T21:01:45.114Z,99998.19
2022-11-19T21:04:12.054Z,100004.94
2022-11-19T21:06:39.309Z,99996.50
2022-11-19T21:09:06.532Z,99992.97
2022-11-19T21:11:33.565Z,99992.91
2022-11-19T21:14:00.578Z,99996.25
2022-11-19T21:16:31.817Z,99999.78
2022-11-19T21:18:59.298Z,99993.69
2022-11-19T21:21:26.486Z,99999.84
2022-11-19T21:23:54.045Z,99992.88
2022-11-19T21:26:23.892Z,99998.91
2022-11-19T21:28:53.479Z,100001.53
2022-11-19T21:31:23.099Z,100000.72
2022-11-19T21:33:49.779Z,100005.75
2022-11-19T21:36:16.597Z,99998.88
2022-11-19T21:38:43.404Z,100005.91
2022-11-19T21:41:10.102Z,99999.88
2022-11-19T21:43:36.672Z,99990.34
2022-11-19T21:46:07.200Z,100002.28
2022-11-19T21:48:33.765Z,100002.00
2022-11-19T21:51:06.225Z,100001.63
2022-11-19T21:53:34.149Z,100008.44
2022-11-19T21:56:01.214Z,100006.75
2022-11-19T21:58:27.862Z,99997.25
2022-11-19T22:01:03.010Z,99998.84
2022-11-19T22:03:33.269Z,100000.84
2022-11-19T22:06:10.464Z,99994.84
2022-11-19T22:08:41.084Z,100000.03
2022-11-19T22:11:28.808Z,99995.78
2022-11-19T22:13:57.692Z,100000.78
2022-11-19T22:16:24.592Z,100003.50
2022-11-19T22:18:51.057Z,99994.75
2022-11-19T22:21:17.935Z,99992.28
2022-11-19T22:23:45.052Z,99997.59
2022-11-19T22:26:12.688Z,99988.09
2022-11-19T22:28:39.916Z,99993.19
2022-11-19T22:31:07.550Z,99988.06
2022-11-19T22:33:36.483Z,99982.88
2022-11-19T22:36:09.789Z,99982.09
2022-11-19T22:38:37.503Z,99986.41
2022-11-19T22:41:10.721Z,99987.47
2022-11-19T22:43:37.990Z,99983.22
2022-11-19T22:46:05.482Z,99986.69
2022-11-19T22:48:33.464Z,99982.25
2022-11-19T22:51:06.508Z,99988.34
2022-11-19T22:53:37.843Z,99992.81
2022-11-19T22:56:07.423Z,99994.34
2022-11-19T22:58:34.790Z,99997.63
2022-11-19T23:01:01.736Z,99987.22
2022-11-19T23:03:28.560Z,99992.28
2022-11-19T23:05:55.945Z,99992.44
2022-11-19T23:08:22.871Z,99988.19
2022-11-19T23:10:57.312Z,99980.59
2022-11-19T23:13:33.371Z,99990.13
2022-11-19T23:16:09.103Z,99986.66
2022-11-19T23:18:40.645Z,99989.03
2022-11-19T23:21:13.820Z,99981.28
2022-11-19T23:23:41.041Z,99981.13
2022-11-19T23:26:09.626Z,99981.19
2022-11-19T23:28:38.030Z,99979.47
2022-11-19T23:31:15.458Z,99971.97
2022-11-19T23:33:42.432Z,99972.97
2022-11-19T23:36:12.764Z,99973.06
2022-11-19T23:38:39.858Z,99967.72
2022-11-19T23:41:09.058Z,99968.59
2022-11-19T23:43:36.410Z,99963.50
2022-11-19T23:46:14.494Z,99963.34
2022-11-19T23:48:43.280Z,99964.22
2022-11-19T23:51:12.370Z,99968.72
2022-11-19T23:53:39.357Z,99967.06
2022-11-19T23:56:06.700Z,99970.44
2022-11-19T23:58:37.182Z,99964.31
